sensor_id;sensor_type;location;lat;lon;timestamp;temperature;humidity
23669;DHT22;12011;47.422;15.018;2022-10-01T00:00:55;11.10;99.90
23669;DHT22;12011;47.422;15.018;2022-10-01T00:03:36;11.20;99.90
23669;DHT22;12011;47.422;15.018;2022-10-01T00:06:12;11.20;99.90
23669;DHT22;12011;47.422;15.018;2022-10-01T00:08:59;11.70;99.90
23669;DHT22;12011;47.422;15.018;2022-10-01T00:11:38;11.10;99.90
23669;DHT22;12011;47.422;15.018;2022-10-01T00:14:12;11.10;99.90
23669;DHT22;12011;47.422;15.018;2022-10-01T00:16:45;11.10;99.90
23669;DHT22;12011;47.422;15.018;2022-10-01T00:19:21;11.10;99.90
23669;DHT22;12011;47.422;15.018;2022-10-01T00:22:00;11.20;99.90
23669;DHT22;12011;47.422;15.018;2022-10-01T00:24:38;11.20;99.90
23669;DHT22;12011;47.422;15.018;2022-10-01T00:27:16;10.10;99.90
23669;DHT22;12011;47.422;15.018;2022-10-01T00:29:47;11.10;99.90
23669;DHT22;12011;47.422;15.018;2022-10-01T00:32:33;11.20;99.90
23669;DHT22;12011;47.422;15.018;2022-10-01T00:35:13;11.10;99.90
23669;DHT22;12011;47.422;15.018;2022-10-01T00:37:46;11.10;99.90
23669;DHT22;12011;47.422;15.018;2022-10-01T00:40:20;11.10;99.90
23669;DHT22;12011;47.422;15.018;2022-10-01T00:43:22;11.10;99.90
23669;DHT22;12011;47.422;15.018;2022-10-01T00:46:11;11.10;99.90
23669;DHT22;12011;47.422;15.018;2022-10-01T00:48:56;11.10;99.90
23669;DHT22;12011;47.422;15.018;2022-10-01T00:51:40;11.10;99.90
23669;DHT22;12011;47.422;15.018;2022-10-01T00:54:25;9.90;99.90
23669;DHT22;12011;47.422;15.018;2022-10-01T00:57:05;11.10;99.90
23669;DHT22;12011;47.422;15.018;2022-10-01T00:59:39;11.10;99.90
23669;DHT22;12011;47.422;15.018;2022-10-01T01:02:14;10.10;99.90
23669;DHT22;12011;47.422;15.018;2022-10-01T01:04:53;11.10;99.90
23669;DHT22;12011;47.422;15.018;2022-10-01T01:07:31;10.10;99.90
23669;DHT22;12011;47.422;15.018;2022-10-01T01:10:13;11.00;99.90
23669;DHT22;12011;47.422;15.018;2022-10-01T01:13:09;11.00;99.90
23669;DHT22;12011;47.422;15.018;2022-10-01T01:15:50;10.90;99.90
23669;DHT22;12011;47.422;15.018;2022-10-01T01:18:31;10.90;99.90
23669;DHT22;12011;47.422;15.018;2022-10-01T01:21:22;10.90;99.90
23669;DHT22;12011;47.422;15.018;2022-10-01T01:24:35;10.50;99.90
23669;DHT22;12011;47.422;15.018;2022-10-01T01:27:37;10.80;99.90
23669;DHT22;12011;47.422;15.018;2022-10-01T01:30:15;10.70;99.90
23669;DHT22;12011;47.422;15.018;2022-10-01T01:32:56;10.70;99.90
23669;DHT22;12011;47.422;15.018;2022-10-01T01:35:40;10.60;99.90
23669;DHT22;12011;47.422;15.018;2022-10-01T01:38:46;10.50;99.90
23669;DHT22;12011;47.422;15.018;2022-10-01T01:41:28;10.50;99.90
23669;DHT22;12011;47.422;15.018;2022-10-01T01:44:09;9.20;99.90
23669;DHT22;12011;47.422;15.018;2022-10-01T01:46:52;10.20;99.90
23669;DHT22;12011;47.422;15.018;2022-10-01T01:49:30;10.00;99.90
23669;DHT22;12011;47.422;15.018;2022-10-01T01:52:12;9.80;99.90
23669;DHT22;12011;47.422;15.018;2022-10-01T01:54:54;9.70;99.90
23669;DHT22;12011;47.422;15.018;2022-10-01T01:57:46;9.90;99.90
23669;DHT22;12011;47.422;15.018;2022-10-01T02:00:21;9.90;99.90
23669;DHT22;12011;47.422;15.018;2022-10-01T02:03:06;10.00;99.90
23669;DHT22;12011;47.422;15.018;2022-10-01T02:06:03;9.30;99.90
23669;DHT22;12011;47.422;15.018;2022-10-01T02:08:50;10.00;99.90
23669;DHT22;12011;47.422;15.018;2022-10-01T02:11:37;10.20;99.90
23669;DHT22;12011;47.422;15.018;2022-10-01T02:14:45;10.40;99.90
23669;DHT22;12011;47.422;15.018;2022-10-01T02:17:29;10.50;99.90
23669;DHT22;12011;47.422;15.018;2022-10-01T02:20:16;10.50;99.90
23669;DHT22;12011;47.422;15.018;2022-10-01T02:23:10;10.50;99.90
23669;DHT22;12011;47.422;15.018;2022-10-01T02:26:10;10.60;99.90
23669;DHT22;12011;47.422;15.018;2022-10-01T02:29:02;10.60;99.90
23669;DHT22;12011;47.422;15.018;2022-10-01T02:31:43;10.60;99.90
23669;DHT22;12011;47.422;15.018;2022-10-01T02:34:19;10.60;99.90
23669;DHT22;12011;47.422;15.018;2022-10-01T02:37:09;10.60;99.90
23669;DHT22;12011;47.422;15.018;2022-10-01T02:39:50;10.60;99.90
23669;DHT22;12011;47.422;15.018;2022-10-01T02:42:28;10.60;99.90
23669;DHT22;12011;47.422;15.018;2022-10-01T02:45:13;11.10;99.90
23669;DHT22;12011;47.422;15.018;2022-10-01T02:47:53;10.80;99.90
23669;DHT22;12011;47.422;15.018;2022-10-01T02:50:48;10.70;99.90
23669;DHT22;12011;47.422;15.018;2022-10-01T02:53:38;10.00;99.90
23669;DHT22;12011;47.422;15.018;2022-10-01T02:56:17;10.80;99.90
23669;DHT22;12011;47.422;15.018;2022-10-01T02:59:14;10.90;99.90
23669;DHT22;12011;47.422;15.018;2022-10-01T03:01:56;10.90;99.90
23669;DHT22;12011;47.422;15.018;2022-10-01T03:04:33;10.80;99.90
23669;DHT22;12011;47.422;15.018;2022-10-01T03:07:13;11.10;99.90
23669;DHT22;12011;47.422;15.018;2022-10-01T03:10:02;10.90;99.90
23669;DHT22;12011;47.422;15.018;2022-10-01T03:12:40;10.80;99.90
23669;DHT22;12011;47.422;15.018;2022-10-01T03:15:23;10.80;99.90
23669;DHT22;12011;47.422;15.018;2022-10-01T03:18:00;10.80;99.90
23669;DHT22;12011;47.422;15.018;2022-10-01T03:20:43;10.70;99.90
23669;DHT22;12011;47.422;15.018;2022-10-01T03:23:39;10.70;99.90
23669;DHT22;12011;47.422;15.018;2022-10-01T03:26:16;10.70;99.90
23669;DHT22;12011;47.422;15.018;2022-10-01T03:28:52;10.70;99.90
23669;DHT22;12011;47.422;15.018;2022-10-01T03:31:30;10.70;99.90
23669;DHT22;12011;47.422;15.018;2022-10-01T03:34:13;9.60;99.90
23669;DHT22;12011;47.422;15.018;2022-10-01T03:36:45;10.60;99.90
23669;DHT22;12011;47.422;15.018;2022-10-01T03:39:22;9.70;99.90
23669;DHT22;12011;47.422;15.018;2022-10-01T03:42:00;10.70;99.90
23669;DHT22;12011;47.422;15.018;2022-10-01T03:44:50;10.70;99.90
23669;DHT22;12011;47.422;15.018;2022-10-01T03:47:21;10.70;99.90
23669;DHT22;12011;47.422;15.018;2022-10-01T03:49:57;10.50;99.90
23669;DHT22;12011;47.422;15.018;2022-10-01T03:52:36;9.90;99.90
23669;DHT22;12011;47.422;15.018;2022-10-01T03:55:11;10.80;99.90
23669;DHT22;12011;47.422;15.018;2022-10-01T03:57:48;10.80;99.90
23669;DHT22;12011;47.422;15.018;2022-10-01T04:00:22;10.80;99.90
23669;DHT22;12011;47.422;15.018;2022-10-01T04:02:57;10.90;99.90
23669;DHT22;12011;47.422;15.018;2022-10-01T04:05:40;10.80;99.90
23669;DHT22;12011;47.422;15.018;2022-10-01T04:08:17;10.80;99.90
23669;DHT22;12011;47.422;15.018;2022-10-01T04:10:51;10.90;99.90
23669;DHT22;12011;47.422;15.018;2022-10-01T04:13:50;10.90;99.90
23669;DHT22;12011;47.422;15.018;2022-10-01T04:16:31;10.90;99.90
23669;DHT22;12011;47.422;15.018;2022-10-01T04:19:05;10.90;99.90
23669;DHT22;12011;47.422;15.018;2022-10-01T04:21:41;11.00;99.90
23669;DHT22;12011;47.422;15.018;2022-10-01T04:24:28;11.00;99.90
23669;DHT22;12011;47.422;15.018;2022-10-01T04:27:01;11.00;99.90
23669;DHT22;12011;47.422;15.018;2022-10-01T04:29:42;11.40;99.90
23669;DHT22;12011;47.422;15.018;2022-10-01T04:32:23;11.10;99.90
23669;DHT22;12011;47.422;15.018;2022-10-01T04:35:01;11.00;99.90
23669;DHT22;12011;47.422;15.018;2022-10-01T04:37:42;11.00;99.90
23669;DHT22;12011;47.422;15.018;2022-10-01T04:40:24;11.00;99.90
23669;DHT22;12011;47.422;15.018;2022-10-01T04:42:59;11.00;99.90
23669;DHT22;12011;47.422;15.018;2022-10-01T04:45:38;11.00;99.90
23669;DHT22;12011;47.422;15.018;2022-10-01T04:48:10;11.10;99.90
23669;DHT22;12011;47.422;15.018;2022-10-01T04:50:54;11.00;99.90
23669;DHT22;12011;47.422;15.018;2022-10-01T04:53:31;11.00;99.90
23669;DHT22;12011;47.422;15.018;2022-10-01T04:56:01;11.00;99.90
23669;DHT22;12011;47.422;15.018;2022-10-01T04:58:32;11.00;99.90
23669;DHT22;12011;47.422;15.018;2022-10-01T05:01:09;10.90;99.90
23669;DHT22;12011;47.422;15.018;2022-10-01T05:03:40;11.00;99.90
23669;DHT22;12011;47.422;15.018;2022-10-01T05:06:13;11.00;99.90
23669;DHT22;12011;47.422;15.018;2022-10-01T05:08:45;11.00;99.90
23669;DHT22;12011;47.422;15.018;2022-10-01T05:11:17;11.00;99.90
23669;DHT22;12011;47.422;15.018;2022-10-01T05:13:54;11.00;99.90
23669;DHT22;12011;47.422;15.018;2022-10-01T05:16:31;11.10;99.90
23669;DHT22;12011;47.422;15.018;2022-10-01T05:19:08;11.10;99.90
23669;DHT22;12011;47.422;15.018;2022-10-01T05:21:38;11.10;99.90
23669;DHT22;12011;47.422;15.018;2022-10-01T05:24:22;11.10;99.90
23669;DHT22;12011;47.422;15.018;2022-10-01T05:26:55;11.10;99.90
23669;DHT22;12011;47.422;15.018;2022-10-01T05:29:39;11.20;99.90
23669;DHT22;12011;47.422;15.018;2022-10-01T05:32:17;11.10;99.90
23669;DHT22;12011;47.422;15.018;2022-10-01T05:34:54;10.40;99.90
23669;DHT22;12011;47.422;15.018;2022-10-01T05:37:28;11.20;99.90
23669;DHT22;12011;47.422;15.018;2022-10-01T05:40:05;11.20;99.90
23669;DHT22;12011;47.422;15.018;2022-10-01T05:42:36;11.20;99.90
23669;DHT22;12011;47.422;15.018;2022-10-01T05:45:33;11.20;99.90
23669;DHT22;12011;47.422;15.018;2022-10-01T05:48:17;11.20;99.90
23669;DHT22;12011;47.422;15.018;2022-10-01T05:50:50;11.20;99.90
23669;DHT22;12011;47.422;15.018;2022-10-01T05:53:29;11.30;99.90
23669;DHT22;12011;47.422;15.018;2022-10-01T05:56:05;12.20;99.90
23669;DHT22;12011;47.422;15.018;2022-10-01T05:58:50;11.10;99.90
23669;DHT22;12011;47.422;15.018;2022-10-01T06:01:20;11.40;99.90
23669;DHT22;12011;47.422;15.018;2022-10-01T06:04:07;11.40;99.90
23669;DHT22;12011;47.422;15.018;2022-10-01T06:06:44;11.20;99.90
23669;DHT22;12011;47.422;15.018;2022-10-01T06:09:18;11.50;99.90
23669;DHT22;12011;47.422;15.018;2022-10-01T06:11:54;11.60;99.90
23669;DHT22;12011;47.422;15.018;2022-10-01T06:14:24;11.60;99.90
23669;DHT22;12011;47.422;15.018;2022-10-01T06:16:58;11.70;99.90
23669;DHT22;12011;47.422;15.018;2022-10-01T06:22:32;11.20;99.90
23669;DHT22;12011;47.422;15.018;2022-10-01T06:25:07;11.80;99.90
23669;DHT22;12011;47.422;15.018;2022-10-01T06:31:12;12.00;99.90
23669;DHT22;12011;47.422;15.018;2022-10-01T06:33:46;12.70;99.90
23669;DHT22;12011;47.422;15.018;2022-10-01T06:36:29;12.30;99.90
23669;DHT22;12011;47.422;15.018;2022-10-01T06:39:20;12.40;99.90
23669;DHT22;12011;47.422;15.018;2022-10-01T06:41:55;12.60;99.90
23669;DHT22;12011;47.422;15.018;2022-10-01T06:44:28;12.60;99.90
23669;DHT22;12011;47.422;15.018;2022-10-01T06:47:03;12.80;99.90
23669;DHT22;12011;47.422;15.018;2022-10-01T06:49:37;12.70;99.90
23669;DHT22;12011;47.422;15.018;2022-10-01T06:52:15;12.60;99.90
23669;DHT22;12011;47.422;15.018;2022-10-01T06:55:05;12.90;99.90
23669;DHT22;12011;47.422;15.018;2022-10-01T06:57:36;13.10;99.90
23669;DHT22;12011;47.422;15.018;2022-10-01T07:00:12;12.60;99.90
23669;DHT22;12011;47.422;15.018;2022-10-01T07:02:45;14.30;99.90
23669;DHT22;12011;47.422;15.018;2022-10-01T07:05:32;13.40;99.90
23669;DHT22;12011;47.422;15.018;2022-10-01T07:08:16;13.30;99.90
23669;DHT22;12011;47.422;15.018;2022-10-01T07:11:00;13.30;99.90
23669;DHT22;12011;47.422;15.018;2022-10-01T07:13:34;13.10;99.90
23669;DHT22;12011;47.422;15.018;2022-10-01T07:16:07;13.00;99.90
23669;DHT22;12011;47.422;15.018;2022-10-01T07:18:41;13.10;99.90
23669;DHT22;12011;47.422;15.018;2022-10-01T07:21:11;13.00;99.90
23669;DHT22;12011;47.422;15.018;2022-10-01T07:23:55;12.90;99.90
23669;DHT22;12011;47.422;15.018;2022-10-01T07:26:31;12.90;99.90
23669;DHT22;12011;47.422;15.018;2022-10-01T07:29:11;12.90;99.90
23669;DHT22;12011;47.422;15.018;2022-10-01T07:31:54;12.90;99.90
23669;DHT22;12011;47.422;15.018;2022-10-01T07:34:55;12.70;99.90
23669;DHT22;12011;47.422;15.018;2022-10-01T07:37:33;11.90;99.90
23669;DHT22;12011;47.422;15.018;2022-10-01T07:40:24;12.70;99.90
23669;DHT22;12011;47.422;15.018;2022-10-01T07:43:03;12.40;99.90
23669;DHT22;12011;47.422;15.018;2022-10-01T07:45:58;12.70;99.90
23669;DHT22;12011;47.422;15.018;2022-10-01T07:49:07;12.60;99.90
23669;DHT22;12011;47.422;15.018;2022-10-01T07:51:44;12.70;99.90
23669;DHT22;12011;47.422;15.018;2022-10-01T07:54:24;12.80;99.90
23669;DHT22;12011;47.422;15.018;2022-10-01T07:57:02;12.80;99.90
23669;DHT22;12011;47.422;15.018;2022-10-01T08:00:01;13.60;99.90
23669;DHT22;12011;47.422;15.018;2022-10-01T08:03:28;12.80;99.90
23669;DHT22;12011;47.422;15.018;2022-10-01T08:06:24;13.60;99.90
23669;DHT22;12011;47.422;15.018;2022-10-01T08:09:05;12.90;99.90
23669;DHT22;12011;47.422;15.018;2022-10-01T08:11:39;13.10;99.90
23669;DHT22;12011;47.422;15.018;2022-10-01T08:14:21;13.10;99.90
23669;DHT22;12011;47.422;15.018;2022-10-01T08:16:55;13.20;99.90
23669;DHT22;12011;47.422;15.018;2022-10-01T08:19:29;13.10;99.90
23669;DHT22;12011;47.422;15.018;2022-10-01T08:22:02;13.10;99.90
23669;DHT22;12011;47.422;15.018;2022-10-01T08:24:44;13.10;99.90
23669;DHT22;12011;47.422;15.018;2022-10-01T08:27:22;13.10;99.90
23669;DHT22;12011;47.422;15.018;2022-10-01T08:30:11;13.10;99.90
23669;DHT22;12011;47.422;15.018;2022-10-01T08:32:56;12.40;99.90
23669;DHT22;12011;47.422;15.018;2022-10-01T08:35:29;14.20;99.90
23669;DHT22;12011;47.422;15.018;2022-10-01T08:38:11;13.20;99.90
23669;DHT22;12011;47.422;15.018;2022-10-01T08:40:51;13.30;99.90
23669;DHT22;12011;47.422;15.018;2022-10-01T08:43:31;13.60;99.90
23669;DHT22;12011;47.422;15.018;2022-10-01T08:46:14;13.50;99.90
23669;DHT22;12011;47.422;15.018;2022-10-01T08:48:56;13.60;99.90
23669;DHT22;12011;47.422;15.018;2022-10-01T08:51:38;13.60;99.90
23669;DHT22;12011;47.422;15.018;2022-10-01T08:54:32;13.70;99.90
23669;DHT22;12011;47.422;15.018;2022-10-01T08:57:16;13.60;99.90
23669;DHT22;12011;47.422;15.018;2022-10-01T08:59:56;13.90;99.90
23669;DHT22;12011;47.422;15.018;2022-10-01T09:02:41;14.20;99.90
23669;DHT22;12011;47.422;15.018;2022-10-01T09:05:23;14.50;99.90
23669;DHT22;12011;47.422;15.018;2022-10-01T09:08:26;14.90;99.90
23669;DHT22;12011;47.422;15.018;2022-10-01T09:11:32;15.40;99.90
23669;DHT22;12011;47.422;15.018;2022-10-01T09:14:35;15.80;99.90
23669;DHT22;12011;47.422;15.018;2022-10-01T09:23:57;15.80;94.30
23669;DHT22;12011;47.422;15.018;2022-10-01T09:26:52;16.50;95.80
23669;DHT22;12011;47.422;15.018;2022-10-01T09:29:26;15.80;99.90
23669;DHT22;12011;47.422;15.018;2022-10-01T09:32:02;15.80;95.70
23669;DHT22;12011;47.422;15.018;2022-10-01T09:34:40;15.90;99.40
23669;DHT22;12011;47.422;15.018;2022-10-01T09:37:22;15.80;98.60
23669;DHT22;12011;47.422;15.018;2022-10-01T09:40:13;15.60;99.20
23669;DHT22;12011;47.422;15.018;2022-10-01T09:42:47;15.70;99.90
23669;DHT22;12011;47.422;15.018;2022-10-01T09:45:17;15.70;98.70
23669;DHT22;12011;47.422;15.018;2022-10-01T09:47:51;15.60;93.70
23669;DHT22;12011;47.422;15.018;2022-10-01T09:50:35;15.40;93.90
23669;DHT22;12011;47.422;15.018;2022-10-01T09:53:15;15.20;99.70
23669;DHT22;12011;47.422;15.018;2022-10-01T09:55:53;15.00;97.10
23669;DHT22;12011;47.422;15.018;2022-10-01T09:58:27;14.90;99.90
23669;DHT22;12011;47.422;15.018;2022-10-01T10:00:57;14.90;99.70
23669;DHT22;12011;47.422;15.018;2022-10-01T10:03:29;15.00;99.90
23669;DHT22;12011;47.422;15.018;2022-10-01T10:06:04;15.00;99.90
23669;DHT22;12011;47.422;15.018;2022-10-01T10:08:36;15.00;99.90
23669;DHT22;12011;47.422;15.018;2022-10-01T10:11:09;15.00;99.90
23669;DHT22;12011;47.422;15.018;2022-10-01T10:13:50;15.00;99.90
23669;DHT22;12011;47.422;15.018;2022-10-01T10:16:25;15.10;99.90
23669;DHT22;12011;47.422;15.018;2022-10-01T10:18:59;15.00;99.90
23669;DHT22;12011;47.422;15.018;2022-10-01T10:21:34;15.10;99.90
23669;DHT22;12011;47.422;15.018;2022-10-01T10:24:23;15.10;99.90
23669;DHT22;12011;47.422;15.018;2022-10-01T10:26:57;15.20;99.00
23669;DHT22;12011;47.422;15.018;2022-10-01T10:29:30;15.80;99.60
23669;DHT22;12011;47.422;15.018;2022-10-01T10:32:09;15.50;97.70
23669;DHT22;12011;47.422;15.018;2022-10-01T10:34:44;15.80;99.90
23669;DHT22;12011;47.422;15.018;2022-10-01T10:37:26;16.10;94.70
23669;DHT22;12011;47.422;15.018;2022-10-01T10:40:01;16.10;91.30
23669;DHT22;12011;47.422;15.018;2022-10-01T10:42:34;16.00;94.90
23669;DHT22;12011;47.422;15.018;2022-10-01T10:45:16;16.10;90.60
23669;DHT22;12011;47.422;15.018;2022-10-01T10:47:50;16.10;91.40
23669;DHT22;12011;47.422;15.018;2022-10-01T10:50:29;16.30;90.70
23669;DHT22;12011;47.422;15.018;2022-10-01T10:53:10;16.40;87.00
23669;DHT22;12011;47.422;15.018;2022-10-01T10:55:55;16.50;85.90
23669;DHT22;12011;47.422;15.018;2022-10-01T10:58:28;16.60;92.00
23669;DHT22;12011;47.422;15.018;2022-10-01T11:01:04;16.50;85.20
23669;DHT22;12011;47.422;15.018;2022-10-01T11:03:42;16.40;80.60
23669;DHT22;12011;47.422;15.018;2022-10-01T11:06:15;16.50;83.60
23669;DHT22;12011;47.422;15.018;2022-10-01T11:08:58;16.50;79.70
23669;DHT22;12011;47.422;15.018;2022-10-01T11:11:45;16.70;81.50
23669;DHT22;12011;47.422;15.018;2022-10-01T11:14:32;16.80;80.80
23669;DHT22;12011;47.422;15.018;2022-10-01T11:17:31;17.10;82.60
23669;DHT22;12011;47.422;15.018;2022-10-01T11:20:32;17.00;76.80
23669;DHT22;12011;47.422;15.018;2022-10-01T11:26:29;16.80;80.40
23669;DHT22;12011;47.422;15.018;2022-10-01T11:29:15;16.90;85.30
23669;DHT22;12011;47.422;15.018;2022-10-01T11:32:04;16.90;83.30
23669;DHT22;12011;47.422;15.018;2022-10-01T11:35:09;16.90;83.40
23669;DHT22;12011;47.422;15.018;2022-10-01T11:38:14;16.80;84.90
23669;DHT22;12011;47.422;15.018;2022-10-01T11:41:17;16.60;89.90
23669;DHT22;12011;47.422;15.018;2022-10-01T11:43:53;16.50;85.60
23669;DHT22;12011;47.422;15.018;2022-10-01T11:46:43;16.30;87.10
23669;DHT22;12011;47.422;15.018;2022-10-01T11:49:46;16.20;88.20
23669;DHT22;12011;47.422;15.018;2022-10-01T11:52:32;16.10;83.20
23669;DHT22;12011;47.422;15.018;2022-10-01T11:55:13;16.20;90.70
23669;DHT22;12011;47.422;15.018;2022-10-01T11:58:14;16.40;90.00
23669;DHT22;12011;47.422;15.018;2022-10-01T12:01:04;16.80;90.60
23669;DHT22;12011;47.422;15.018;2022-10-01T12:03:48;17.10;84.40
23669;DHT22;12011;47.422;15.018;2022-10-01T12:06:30;17.10;75.20
23669;DHT22;12011;47.422;15.018;2022-10-01T12:09:08;17.10;79.50
23669;DHT22;12011;47.422;15.018;2022-10-01T12:11:47;17.40;79.30
23669;DHT22;12011;47.422;15.018;2022-10-01T12:14:29;17.60;78.30
23669;DHT22;12011;47.422;15.018;2022-10-01T12:17:12;17.60;73.10
23669;DHT22;12011;47.422;15.018;2022-10-01T12:19:49;17.60;73.30
23669;DHT22;12011;47.422;15.018;2022-10-01T12:22:24;17.50;70.60
23669;DHT22;12011;47.422;15.018;2022-10-01T12:24:56;17.50;73.60
23669;DHT22;12011;47.422;15.018;2022-10-01T12:27:42;17.50;77.50
23669;DHT22;12011;47.422;15.018;2022-10-01T12:30:23;17.20;71.50
23669;DHT22;12011;47.422;15.018;2022-10-01T12:33:13;17.50;74.00
23669;DHT22;12011;47.422;15.018;2022-10-01T12:36:06;17.60;74.70
23669;DHT22;12011;47.422;15.018;2022-10-01T12:38:56;17.80;81.50
23669;DHT22;12011;47.422;15.018;2022-10-01T12:41:47;17.80;76.50
23669;DHT22;12011;47.422;15.018;2022-10-01T12:44:46;17.90;80.50
23669;DHT22;12011;47.422;15.018;2022-10-01T12:47:35;17.80;77.50
23669;DHT22;12011;47.422;15.018;2022-10-01T12:50:26;17.80;79.20
23669;DHT22;12011;47.422;15.018;2022-10-01T12:53:14;17.70;75.90
23669;DHT22;12011;47.422;15.018;2022-10-01T12:56:12;17.30;72.00
23669;DHT22;12011;47.422;15.018;2022-10-01T12:59:06;17.30;80.50
23669;DHT22;12011;47.422;15.018;2022-10-01T13:01:58;17.30;79.90
23669;DHT22;12011;47.422;15.018;2022-10-01T13:08:01;16.90;80.60
23669;DHT22;12011;47.422;15.018;2022-10-01T13:10:46;16.70;76.30
23669;DHT22;12011;47.422;15.018;2022-10-01T13:13:25;16.50;80.00
23669;DHT22;12011;47.422;15.018;2022-10-01T13:16:05;16.60;82.60
23669;DHT22;12011;47.422;15.018;2022-10-01T13:18:48;16.60;78.30
23669;DHT22;12011;47.422;15.018;2022-10-01T13:21:37;16.50;78.10
23669;DHT22;12011;47.422;15.018;2022-10-01T13:24:26;16.70;81.30
23669;DHT22;12011;47.422;15.018;2022-10-01T13:27:05;16.90;82.70
23669;DHT22;12011;47.422;15.018;2022-10-01T13:29:51;17.10;83.70
23669;DHT22;12011;47.422;15.018;2022-10-01T13:32:27;17.10;77.80
23669;DHT22;12011;47.422;15.018;2022-10-01T13:34:59;17.20;74.40
23669;DHT22;12011;47.422;15.018;2022-10-01T13:37:39;17.10;73.90
23669;DHT22;12011;47.422;15.018;2022-10-01T13:40:22;17.20;76.30
23669;DHT22;12011;47.422;15.018;2022-10-01T13:42:57;17.40;76.10
23669;DHT22;12011;47.422;15.018;2022-10-01T13:45:30;17.40;73.10
23669;DHT22;12011;47.422;15.018;2022-10-01T13:48:17;17.40;73.40
23669;DHT22;12011;47.422;15.018;2022-10-01T13:50:58;17.60;73.50
23669;DHT22;12011;47.422;15.018;2022-10-01T13:53:37;17.50;72.00
23669;DHT22;12011;47.422;15.018;2022-10-01T13:56:27;17.20;71.90
23669;DHT22;12011;47.422;15.018;2022-10-01T13:59:00;17.20;76.80
23669;DHT22;12011;47.422;15.018;2022-10-01T14:01:37;17.30;80.00
23669;DHT22;12011;47.422;15.018;2022-10-01T14:04:18;17.30;80.90
23669;DHT22;12011;47.422;15.018;2022-10-01T14:06:54;17.30;78.30
23669;DHT22;12011;47.422;15.018;2022-10-01T14:09:32;17.30;82.50
23669;DHT22;12011;47.422;15.018;2022-10-01T14:12:09;17.20;90.70
23669;DHT22;12011;47.422;15.018;2022-10-01T14:14:57;17.10;81.40
23669;DHT22;12011;47.422;15.018;2022-10-01T14:17:42;16.90;83.80
23669;DHT22;12011;47.422;15.018;2022-10-01T14:20:18;16.80;87.60
23669;DHT22;12011;47.422;15.018;2022-10-01T14:23:03;16.60;83.30
23669;DHT22;12011;47.422;15.018;2022-10-01T14:25:47;16.40;91.30
23669;DHT22;12011;47.422;15.018;2022-10-01T14:28:33;16.30;95.80
23669;DHT22;12011;47.422;15.018;2022-10-01T14:31:17;16.10;91.10
23669;DHT22;12011;47.422;15.018;2022-10-01T14:34:14;15.90;89.00
23669;DHT22;12011;47.422;15.018;2022-10-01T14:36:50;15.80;87.70
23669;DHT22;12011;47.422;15.018;2022-10-01T14:39:22;15.70;91.50
23669;DHT22;12011;47.422;15.018;2022-10-01T14:41:57;15.50;94.90
23669;DHT22;12011;47.422;15.018;2022-10-01T14:44:28;15.30;93.20
23669;DHT22;12011;47.422;15.018;2022-10-01T14:47:12;15.20;95.70
23669;DHT22;12011;47.422;15.018;2022-10-01T14:49:45;15.10;99.90
23669;DHT22;12011;47.422;15.018;2022-10-01T14:52:21;15.10;99.90
23669;DHT22;12011;47.422;15.018;2022-10-01T14:55:00;14.80;99.90
23669;DHT22;12011;47.422;15.018;2022-10-01T14:57:37;14.70;99.10
23669;DHT22;12011;47.422;15.018;2022-10-01T15:00:14;14.50;98.60
23669;DHT22;12011;47.422;15.018;2022-10-01T15:02:47;14.30;98.00
23669;DHT22;12011;47.422;15.018;2022-10-01T15:05:20;14.10;96.00
23669;DHT22;12011;47.422;15.018;2022-10-01T15:07:51;14.00;97.70
23669;DHT22;12011;47.422;15.018;2022-10-01T15:10:25;13.90;99.90
23669;DHT22;12011;47.422;15.018;2022-10-01T15:12:58;13.80;97.20
23669;DHT22;12011;47.422;15.018;2022-10-01T15:15:33;13.70;93.90
23669;DHT22;12011;47.422;15.018;2022-10-01T15:18:14;13.50;99.40
23669;DHT22;12011;47.422;15.018;2022-10-01T15:20:55;13.50;96.40
23669;DHT22;12011;47.422;15.018;2022-10-01T15:23:28;13.50;95.60
23669;DHT22;12011;47.422;15.018;2022-10-01T15:26:01;13.50;95.10
23669;DHT22;12011;47.422;15.018;2022-10-01T15:28:35;13.50;93.40
23669;DHT22;12011;47.422;15.018;2022-10-01T15:31:06;13.40;96.40
23669;DHT22;12011;47.422;15.018;2022-10-01T15:33:39;13.40;94.80
23669;DHT22;12011;47.422;15.018;2022-10-01T15:36:14;13.40;96.20
23669;DHT22;12011;47.422;15.018;2022-10-01T15:38:47;13.40;94.50
23669;DHT22;12011;47.422;15.018;2022-10-01T15:41:23;13.50;97.00
23669;DHT22;12011;47.422;15.018;2022-10-01T15:43:58;13.50;94.00
23669;DHT22;12011;47.422;15.018;2022-10-01T15:46:32;13.50;93.80
23669;DHT22;12011;47.422;15.018;2022-10-01T15:49:16;13.50;95.40
23669;DHT22;12011;47.422;15.018;2022-10-01T15:51:59;13.50;95.90
23669;DHT22;12011;47.422;15.018;2022-10-01T15:54:44;13.60;98.30
23669;DHT22;12011;47.422;15.018;2022-10-01T15:57:18;13.60;96.30
23669;DHT22;12011;47.422;15.018;2022-10-01T15:59:53;13.60;99.90
23669;DHT22;12011;47.422;15.018;2022-10-01T16:02:27;13.70;99.90
23669;DHT22;12011;47.422;15.018;2022-10-01T16:05:04;13.70;99.90
23669;DHT22;12011;47.422;15.018;2022-10-01T16:07:34;13.60;99.90
23669;DHT22;12011;47.422;15.018;2022-10-01T16:10:14;13.60;99.90
23669;DHT22;12011;47.422;15.018;2022-10-01T16:12:53;13.50;99.90
23669;DHT22;12011;47.422;15.018;2022-10-01T16:15:28;13.40;99.90
23669;DHT22;12011;47.422;15.018;2022-10-01T16:17:59;13.40;99.90
23669;DHT22;12011;47.422;15.018;2022-10-01T16:20:38;13.30;99.90
23669;DHT22;12011;47.422;15.018;2022-10-01T16:23:32;13.20;99.90
23669;DHT22;12011;47.422;15.018;2022-10-01T16:26:05;13.10;99.90
23669;DHT22;12011;47.422;15.018;2022-10-01T16:28:57;13.00;99.90
23669;DHT22;12011;47.422;15.018;2022-10-01T16:31:31;12.80;99.90
23669;DHT22;12011;47.422;15.018;2022-10-01T16:34:09;12.70;99.90
23669;DHT22;12011;47.422;15.018;2022-10-01T16:36:39;12.50;99.90
23669;DHT22;12011;47.422;15.018;2022-10-01T16:39:09;12.50;99.90
23669;DHT22;12011;47.422;15.018;2022-10-01T16:41:42;12.60;99.90
23669;DHT22;12011;47.422;15.018;2022-10-01T16:44:13;12.60;99.90
23669;DHT22;12011;47.422;15.018;2022-10-01T16:46:45;12.50;99.90
23669;DHT22;12011;47.422;15.018;2022-10-01T16:49:15;12.40;99.90
23669;DHT22;12011;47.422;15.018;2022-10-01T16:51:51;12.20;99.90
23669;DHT22;12011;47.422;15.018;2022-10-01T16:54:23;11.90;99.90
23669;DHT22;12011;47.422;15.018;2022-10-01T16:56:53;11.90;99.90
23669;DHT22;12011;47.422;15.018;2022-10-01T16:59:24;11.80;99.90
23669;DHT22;12011;47.422;15.018;2022-10-01T17:01:56;11.70;99.90